sensor_id;sensor_type;location;lat;lon;timestamp;pressure;altitude;pressure_sealevel;temperature;humidity
44839;BME280;30576;42.098;24.876;2022-07-22T00:00:23;99649.88;;;24.16;54.15
44839;BME280;30576;42.098;24.876;2022-07-22T00:02:48;99629.97;;;24.06;53.85
44839;BME280;30576;42.098;24.876;2022-07-22T00:05:14;99640.09;;;24.02;53.86
44839;BME280;30576;42.098;24.876;2022-07-22T00:07:39;99617.38;;;23.93;54.08
44839;BME280;30576;42.098;24.876;2022-07-22T00:10:06;99613.69;;;23.82;54.17
44839;BME280;30576;42.098;24.876;2022-07-22T00:12:33;99664.84;;;24.20;53.95
44839;BME280;30576;42.098;24.876;2022-07-22T00:14:59;99647.56;;;23.86;54.65
44839;BME280;30576;42.098;24.876;2022-07-22T00:17:24;99636.13;;;23.82;54.79
44839;BME280;30576;42.098;24.876;2022-07-22T00:19:50;99626.84;;;23.73;54.81
44839;BME280;30576;42.098;24.876;2022-07-22T00:22:15;99644.28;;;23.68;55.10
44839;BME280;30576;42.098;24.876;2022-07-22T00:24:41;99669.28;;;23.70;55.34
44839;BME280;30576;42.098;24.876;2022-07-22T00:27:06;99664.00;;;23.81;55.38
44839;BME280;30576;42.098;24.876;2022-07-22T00:29:32;99674.16;;;23.77;55.75
44839;BME280;30576;42.098;24.876;2022-07-22T00:31:57;99639.53;;;23.58;55.74
44839;BME280;30576;42.098;24.876;2022-07-22T00:34:23;99640.22;;;23.62;55.72
44839;BME280;30576;42.098;24.876;2022-07-22T00:36:48;99685.25;;;23.99;55.42
44839;BME280;30576;42.098;24.876;2022-07-22T00:39:14;99657.00;;;23.78;55.53
44839;BME280;30576;42.098;24.876;2022-07-22T00:41:40;99686.28;;;23.83;55.67
44839;BME280;30576;42.098;24.876;2022-07-22T00:44:08;99684.69;;;23.81;55.81
44839;BME280;30576;42.098;24.876;2022-07-22T00:46:36;99685.44;;;23.70;55.96
44839;BME280;30576;42.098;24.876;2022-07-22T00:49:04;99681.88;;;23.56;56.37
44839;BME280;30576;42.098;24.876;2022-07-22T00:51:30;99648.78;;;23.41;56.13
44839;BME280;30576;42.098;24.876;2022-07-22T00:53:56;99650.41;;;23.31;56.10
44839;BME280;30576;42.098;24.876;2022-07-22T00:56:23;99636.13;;;23.03;56.45
44839;BME280;30576;42.098;24.876;2022-07-22T00:58:51;99658.06;;;22.97;57.01
44839;BME280;30576;42.098;24.876;2022-07-22T01:01:17;99665.41;;;23.08;56.90
44839;BME280;30576;42.098;24.876;2022-07-22T01:03:43;99646.50;;;22.82;57.28
44839;BME280;30576;42.098;24.876;2022-07-22T01:06:08;99681.53;;;23.08;57.11
44839;BME280;30576;42.098;24.876;2022-07-22T01:08:34;99655.00;;;22.89;57.38
44839;BME280;30576;42.098;24.876;2022-07-22T01:11:12;99637.09;;;22.75;57.64
44839;BME280;30576;42.098;24.876;2022-07-22T01:13:39;99642.94;;;22.55;57.74
44839;BME280;30576;42.098;24.876;2022-07-22T01:16:06;99669.50;;;22.59;57.45
44839;BME280;30576;42.098;24.876;2022-07-22T01:18:32;99657.47;;;22.23;58.52
44839;BME280;30576;42.098;24.876;2022-07-22T01:20:58;99679.94;;;22.08;59.44
44839;BME280;30576;42.098;24.876;2022-07-22T01:23:24;99694.13;;;22.10;59.63
44839;BME280;30576;42.098;24.876;2022-07-22T01:25:49;99687.22;;;22.06;59.31
44839;BME280;30576;42.098;24.876;2022-07-22T01:28:15;99655.75;;;21.79;59.97
44839;BME280;30576;42.098;24.876;2022-07-22T01:30:40;99684.44;;;22.07;59.59
44839;BME280;30576;42.098;24.876;2022-07-22T01:33:06;99682.41;;;21.96;59.70
44839;BME280;30576;42.098;24.876;2022-07-22T01:35:31;99693.53;;;22.19;59.49
44839;BME280;30576;42.098;24.876;2022-07-22T01:37:57;99680.31;;;22.30;59.10
44839;BME280;30576;42.098;24.876;2022-07-22T01:40:23;99660.56;;;22.31;58.68
44839;BME280;30576;42.098;24.876;2022-07-22T01:42:49;99658.31;;;22.52;58.09
44839;BME280;30576;42.098;24.876;2022-07-22T01:45:14;99685.84;;;22.56;58.11
44839;BME280;30576;42.098;24.876;2022-07-22T01:47:40;99683.50;;;22.64;58.03
44839;BME280;30576;42.098;24.876;2022-07-22T01:50:08;99693.75;;;22.72;58.01
44839;BME280;30576;42.098;24.876;2022-07-22T01:52:34;99685.19;;;22.38;58.87
44839;BME280;30576;42.098;24.876;2022-07-22T01:55:00;99639.47;;;22.11;59.18
44839;BME280;30576;42.098;24.876;2022-07-22T01:57:25;99661.03;;;22.24;58.89
44839;BME280;30576;42.098;24.876;2022-07-22T01:59:51;99649.91;;;22.15;59.03
44839;BME280;30576;42.098;24.876;2022-07-22T02:02:16;99688.94;;;22.50;58.78
44839;BME280;30576;42.098;24.876;2022-07-22T02:04:42;99664.78;;;22.35;58.71
44839;BME280;30576;42.098;24.876;2022-07-22T02:07:08;99681.03;;;22.61;58.30
44839;BME280;30576;42.098;24.876;2022-07-22T02:09:33;99671.47;;;22.57;58.22
44839;BME280;30576;42.098;24.876;2022-07-22T02:11:59;99685.28;;;22.51;58.60
44839;BME280;30576;42.098;24.876;2022-07-22T02:14:24;99666.94;;;22.29;58.61
44839;BME280;30576;42.098;24.876;2022-07-22T02:16:51;99665.63;;;22.36;58.65
44839;BME280;30576;42.098;24.876;2022-07-22T02:19:16;99685.97;;;22.40;59.01
44839;BME280;30576;42.098;24.876;2022-07-22T02:21:42;99649.31;;;22.10;59.38
44839;BME280;30576;42.098;24.876;2022-07-22T02:24:08;99671.84;;;22.22;60.02
44839;BME280;30576;42.098;24.876;2022-07-22T02:26:33;99668.13;;;22.25;59.79
44839;BME280;30576;42.098;24.876;2022-07-22T02:28:59;99659.22;;;22.10;60.06
44839;BME280;30576;42.098;24.876;2022-07-22T02:31:25;99646.56;;;21.97;60.44
44839;BME280;30576;42.098;24.876;2022-07-22T02:33:51;99650.56;;;21.90;60.57
44839;BME280;30576;42.098;24.876;2022-07-22T02:36:17;99660.75;;;21.85;60.74
44839;BME280;30576;42.098;24.876;2022-07-22T02:38:42;99637.63;;;21.68;60.61
44839;BME280;30576;42.098;24.876;2022-07-22T02:41:08;99657.22;;;21.85;60.74
44839;BME280;30576;42.098;24.876;2022-07-22T02:43:33;99643.00;;;21.82;60.30
44839;BME280;30576;42.098;24.876;2022-07-22T02:45:59;99662.47;;;22.00;60.52
44839;BME280;30576;42.098;24.876;2022-07-22T02:48:24;99675.31;;;22.10;60.23
44839;BME280;30576;42.098;24.876;2022-07-22T02:50:50;99637.06;;;21.63;60.86
44839;BME280;30576;42.098;24.876;2022-07-22T02:53:15;99671.22;;;21.90;60.86
44839;BME280;30576;42.098;24.876;2022-07-22T02:55:41;99646.34;;;21.72;60.58
44839;BME280;30576;42.098;24.876;2022-07-22T02:58:07;99658.53;;;21.92;60.80
44839;BME280;30576;42.098;24.876;2022-07-22T03:00:34;99664.00;;;21.90;60.94
44839;BME280;30576;42.098;24.876;2022-07-22T03:03:03;99659.22;;;21.81;60.71
44839;BME280;30576;42.098;24.876;2022-07-22T03:05:28;99658.25;;;21.96;60.76
44839;BME280;30576;42.098;24.876;2022-07-22T03:07:54;99637.16;;;21.76;61.23
44839;BME280;30576;42.098;24.876;2022-07-22T03:10:19;99618.16;;;21.50;61.37
44839;BME280;30576;42.098;24.876;2022-07-22T03:12:45;99624.69;;;21.60;61.21
44839;BME280;30576;42.098;24.876;2022-07-22T03:15:10;99657.69;;;21.77;61.54
44839;BME280;30576;42.098;24.876;2022-07-22T03:17:37;99677.25;;;21.93;60.95
44839;BME280;30576;42.098;24.876;2022-07-22T03:20:07;99620.09;;;21.62;61.24
44839;BME280;30576;42.098;24.876;2022-07-22T03:22:33;99669.47;;;21.89;61.00
44839;BME280;30576;42.098;24.876;2022-07-22T03:24:59;99649.13;;;21.70;61.21
44839;BME280;30576;42.098;24.876;2022-07-22T03:27:25;99669.28;;;21.63;62.33
44839;BME280;30576;42.098;24.876;2022-07-22T03:29:50;99678.97;;;21.80;61.99
44839;BME280;30576;42.098;24.876;2022-07-22T03:32:16;99644.47;;;21.74;61.47
44839;BME280;30576;42.098;24.876;2022-07-22T03:34:41;99676.00;;;21.99;61.47
44839;BME280;30576;42.098;24.876;2022-07-22T03:37:07;99655.56;;;21.68;62.03
44839;BME280;30576;42.098;24.876;2022-07-22T03:39:33;99673.59;;;21.94;62.10
44839;BME280;30576;42.098;24.876;2022-07-22T03:41:58;99662.75;;;21.96;62.26
44839;BME280;30576;42.098;24.876;2022-07-22T03:44:24;99659.03;;;21.98;62.51
44839;BME280;30576;42.098;24.876;2022-07-22T03:46:49;99656.91;;;22.04;62.69
44839;BME280;30576;42.098;24.876;2022-07-22T03:49:15;99647.31;;;21.99;62.74
44839;BME280;30576;42.098;24.876;2022-07-22T03:51:41;99667.34;;;22.23;62.40
44839;BME280;30576;42.098;24.876;2022-07-22T03:54:06;99683.78;;;22.32;62.90
44839;BME280;30576;42.098;24.876;2022-07-22T03:56:32;99678.88;;;22.25;63.35
44839;BME280;30576;42.098;24.876;2022-07-22T03:58:58;99667.34;;;22.23;63.77
44839;BME280;30576;42.098;24.876;2022-07-22T04:01:23;99650.19;;;22.11;63.87
44839;BME280;30576;42.098;24.876;2022-07-22T04:03:49;99676.84;;;22.28;64.52
44839;BME280;30576;42.098;24.876;2022-07-22T04:06:15;99696.03;;;22.37;64.50
44839;BME280;30576;42.098;24.876;2022-07-22T04:08:41;99668.09;;;22.53;63.98
44839;BME280;30576;42.098;24.876;2022-07-22T04:11:06;99669.22;;;22.64;63.28
44839;BME280;30576;42.098;24.876;2022-07-22T04:13:32;99708.06;;;23.00;62.85
44839;BME280;30576;42.098;24.876;2022-07-22T04:15:57;99670.41;;;23.00;61.68
44839;BME280;30576;42.098;24.876;2022-07-22T04:18:23;99677.75;;;23.25;60.74
44839;BME280;30576;42.098;24.876;2022-07-22T04:20:49;99689.16;;;23.41;59.34
44839;BME280;30576;42.098;24.876;2022-07-22T04:23:14;99652.50;;;22.86;58.39
44839;BME280;30576;42.098;24.876;2022-07-22T04:25:40;99691.72;;;23.17;57.58
44839;BME280;30576;42.098;24.876;2022-07-22T04:28:06;99670.88;;;23.06;57.27
44839;BME280;30576;42.098;24.876;2022-07-22T04:30:31;99675.28;;;23.07;56.51
44839;BME280;30576;42.098;24.876;2022-07-22T04:32:58;99674.91;;;23.14;56.73
44839;BME280;30576;42.098;24.876;2022-07-22T04:35:24;99672.47;;;23.36;57.16
44839;BME280;30576;42.098;24.876;2022-07-22T04:37:49;99671.88;;;23.71;57.11
44839;BME280;30576;42.098;24.876;2022-07-22T04:40:15;99707.19;;;23.80;56.99
44839;BME280;30576;42.098;24.876;2022-07-22T04:42:40;99693.75;;;23.80;55.97
44839;BME280;30576;42.098;24.876;2022-07-22T04:45:06;99699.97;;;23.80;55.76
44839;BME280;30576;42.098;24.876;2022-07-22T04:47:32;99672.53;;;23.88;55.65
44839;BME280;30576;42.098;24.876;2022-07-22T04:49:57;99705.41;;;24.06;54.97
44839;BME280;30576;42.098;24.876;2022-07-22T04:52:23;99712.09;;;24.13;54.89
44839;BME280;30576;42.098;24.876;2022-07-22T04:54:48;99689.66;;;24.12;54.49
44839;BME280;30576;42.098;24.876;2022-07-22T04:57:14;99702.50;;;23.96;54.83
44839;BME280;30576;42.098;24.876;2022-07-22T04:59:40;99689.34;;;24.04;55.41
44839;BME280;30576;42.098;24.876;2022-07-22T05:02:06;99659.66;;;24.30;54.49
44839;BME280;30576;42.098;24.876;2022-07-22T05:04:33;99679.31;;;24.56;53.89
44839;BME280;30576;42.098;24.876;2022-07-22T05:06:59;99702.53;;;24.46;53.61
44839;BME280;30576;42.098;24.876;2022-07-22T05:09:24;99712.16;;;24.87;53.56
44839;BME280;30576;42.098;24.876;2022-07-22T05:11:50;99689.41;;;25.02;52.80
44839;BME280;30576;42.098;24.876;2022-07-22T05:14:15;99666.38;;;25.10;52.26
44839;BME280;30576;42.098;24.876;2022-07-22T05:16:41;99695.09;;;25.35;51.79
44839;BME280;30576;42.098;24.876;2022-07-22T05:19:06;99689.03;;;25.67;51.32
44839;BME280;30576;42.098;24.876;2022-07-22T05:21:32;99700.13;;;25.86;50.18
44839;BME280;30576;42.098;24.876;2022-07-22T05:23:58;99705.75;;;25.83;50.33
44839;BME280;30576;42.098;24.876;2022-07-22T05:26:24;99702.63;;;26.12;50.13
44839;BME280;30576;42.098;24.876;2022-07-22T05:28:50;99691.41;;;25.94;50.91
44839;BME280;30576;42.098;24.876;2022-07-22T05:31:15;99691.47;;;25.59;51.31
44839;BME280;30576;42.098;24.876;2022-07-22T05:33:41;99674.09;;;25.97;51.16
44839;BME280;30576;42.098;24.876;2022-07-22T05:36:07;99696.47;;;26.33;49.30
44839;BME280;30576;42.098;24.876;2022-07-22T05:38:35;99683.16;;;26.52;48.92
44839;BME280;30576;42.098;24.876;2022-07-22T05:41:01;99681.66;;;26.82;47.59
44839;BME280;30576;42.098;24.876;2022-07-22T05:43:27;99668.56;;;26.98;47.72
44839;BME280;30576;42.098;24.876;2022-07-22T05:45:53;99654.06;;;27.21;47.80
44839;BME280;30576;42.098;24.876;2022-07-22T05:48:19;99665.66;;;27.65;47.45
44839;BME280;30576;42.098;24.876;2022-07-22T05:50:44;99637.88;;;27.73;45.24
44839;BME280;30576;42.098;24.876;2022-07-22T05:53:10;99648.78;;;27.82;45.90
44839;BME280;30576;42.098;24.876;2022-07-22T05:55:35;99671.59;;;27.80;46.02
44839;BME280;30576;42.098;24.876;2022-07-22T05:58:01;99660.50;;;28.14;45.67
44839;BME280;30576;42.098;24.876;2022-07-22T06:00:27;99661.56;;;28.22;43.70
44839;BME280;30576;42.098;24.876;2022-07-22T06:02:52;99676.06;;;28.52;43.98
44839;BME280;30576;42.098;24.876;2022-07-22T06:05:19;99665.28;;;28.72;43.18
44839;BME280;30576;42.098;24.876;2022-07-22T06:07:44;99666.84;;;28.65;44.05
44839;BME280;30576;42.098;24.876;2022-07-22T06:10:10;99658.28;;;28.99;42.78
44839;BME280;30576;42.098;24.876;2022-07-22T06:12:35;99653.84;;;28.98;44.19
44839;BME280;30576;42.098;24.876;2022-07-22T06:15:03;99665.91;;;28.45;45.02
44839;BME280;30576;42.098;24.876;2022-07-22T06:17:28;99634.69;;;28.70;43.02
44839;BME280;30576;42.098;24.876;2022-07-22T06:19:54;99648.31;;;29.09;42.12
44839;BME280;30576;42.098;24.876;2022-07-22T06:22:19;99659.41;;;29.64;42.22
44839;BME280;30576;42.098;24.876;2022-07-22T06:24:45;99658.03;;;29.31;41.40
44839;BME280;30576;42.098;24.876;2022-07-22T06:27:12;99678.03;;;29.50;41.15
44839;BME280;30576;42.098;24.876;2022-07-22T06:29:37;99657.66;;;29.73;40.60
44839;BME280;30576;42.098;24.876;2022-07-22T06:32:03;99629.75;;;29.91;40.19
44839;BME280;30576;42.098;24.876;2022-07-22T06:34:28;99648.91;;;30.27;39.87
44839;BME280;30576;42.098;24.876;2022-07-22T06:36:54;99663.66;;;29.77;40.97
44839;BME280;30576;42.098;24.876;2022-07-22T06:39:20;99659.34;;;29.94;40.32
44839;BME280;30576;42.098;24.876;2022-07-22T06:41:46;99657.06;;;30.55;40.26
44839;BME280;30576;42.098;24.876;2022-07-22T06:44:12;99645.63;;;31.15;38.21
44839;BME280;30576;42.098;24.876;2022-07-22T06:46:37;99665.09;;;30.56;37.84
44839;BME280;30576;42.098;24.876;2022-07-22T06:49:03;99668.00;;;30.73;38.78
44839;BME280;30576;42.098;24.876;2022-07-22T06:51:28;99644.22;;;30.47;38.10
44839;BME280;30576;42.098;24.876;2022-07-22T06:53:55;99628.28;;;30.52;37.85
44839;BME280;30576;42.098;24.876;2022-07-22T06:56:20;99652.78;;;30.98;38.54
44839;BME280;30576;42.098;24.876;2022-07-22T06:58:46;99625.94;;;31.03;38.13
44839;BME280;30576;42.098;24.876;2022-07-22T07:01:11;99659.28;;;31.41;37.63
44839;BME280;30576;42.098;24.876;2022-07-22T07:03:37;99634.31;;;31.28;37.01
44839;BME280;30576;42.098;24.876;2022-07-22T07:06:03;99639.06;;;31.70;36.29
44839;BME280;30576;42.098;24.876;2022-07-22T07:08:29;99665.16;;;31.28;38.41
44839;BME280;30576;42.098;24.876;2022-07-22T07:10:55;99659.28;;;31.23;39.14
44839;BME280;30576;42.098;24.876;2022-07-22T07:13:20;99671.41;;;31.65;38.06
44839;BME280;30576;42.098;24.876;2022-07-22T07:15:46;99658.72;;;31.82;35.37
44839;BME280;30576;42.098;24.876;2022-07-22T07:18:11;99662.78;;;31.33;38.63
44839;BME280;30576;42.098;24.876;2022-07-22T07:20:37;99670.06;;;31.95;36.72
44839;BME280;30576;42.098;24.876;2022-07-22T07:23:03;99660.09;;;32.55;35.67
44839;BME280;30576;42.098;24.876;2022-07-22T07:25:28;99629.72;;;32.58;35.08
44839;BME280;30576;42.098;24.876;2022-07-22T07:27:57;99630.00;;;33.06;33.81
44839;BME280;30576;42.098;24.876;2022-07-22T07:30:22;99646.75;;;32.86;33.60
44839;BME280;30576;42.098;24.876;2022-07-22T07:32:48;99652.84;;;32.72;34.42
44839;BME280;30576;42.098;24.876;2022-07-22T07:35:14;99642.47;;;32.41;35.85
44839;BME280;30576;42.098;24.876;2022-07-22T07:37:39;99631.59;;;32.06;35.42
44839;BME280;30576;42.098;24.876;2022-07-22T07:40:06;99644.19;;;32.93;35.38
44839;BME280;30576;42.098;24.876;2022-07-22T08:41:43;99652.22;;;34.95;32.83
44839;BME280;30576;42.098;24.876;2022-07-22T08:47:29;99594.53;;;35.35;30.93
44839;BME280;30576;42.098;24.876;2022-07-22T08:49:55;99664.63;;;35.91;31.10
44839;BME280;30576;42.098;24.876;2022-07-22T08:52:26;99597.75;;;34.77;30.86
44839;BME280;30576;42.098;24.876;2022-07-22T08:54:55;99600.31;;;35.17;31.56
44839;BME280;30576;42.098;24.876;2022-07-22T08:57:21;99633.94;;;35.34;30.46
44839;BME280;30576;42.098;24.876;2022-07-22T08:59:55;99624.09;;;36.08;29.04
44839;BME280;30576;42.098;24.876;2022-07-22T09:02:21;99629.22;;;36.77;30.08
44839;BME280;30576;42.098;24.876;2022-07-22T09:04:53;99611.94;;;36.83;29.24
44839;BME280;30576;42.098;24.876;2022-07-22T09:07:39;99624.28;;;36.36;29.30
44839;BME280;30576;42.098;24.876;2022-07-22T09:10:09;99623.16;;;36.15;28.95
44839;BME280;30576;42.098;24.876;2022-07-22T09:12:50;99601.81;;;35.81;31.40
44839;BME280;30576;42.098;24.876;2022-07-22T09:15:34;99600.91;;;35.65;28.07
44839;BME280;30576;42.098;24.876;2022-07-22T09:18:04;99613.38;;;35.68;30.18
44839;BME280;30576;42.098;24.876;2022-07-22T09:20:31;99601.56;;;35.67;29.48
44839;BME280;30576;42.098;24.876;2022-07-22T09:22:57;99610.81;;;35.66;28.95
44839;BME280;30576;42.098;24.876;2022-07-22T09:25:24;99651.00;;;35.82;31.76
44839;BME280;30576;42.098;24.876;2022-07-22T09:27:56;99599.53;;;35.99;31.43
44839;BME280;30576;42.098;24.876;2022-07-22T09:30:39;99578.16;;;36.46;26.79
44839;BME280;30576;42.098;24.876;2022-07-22T09:33:06;99584.06;;;36.13;27.19
44839;BME280;30576;42.098;24.876;2022-07-22T09:35:32;99595.44;;;35.80;27.73
44839;BME280;30576;42.098;24.876;2022-07-22T09:38:00;99612.69;;;35.36;28.13
44839;BME280;30576;42.098;24.876;2022-07-22T09:40:31;99592.19;;;35.62;28.64
44839;BME280;30576;42.098;24.876;2022-07-22T09:42:59;99602.25;;;35.84;30.33
44839;BME280;30576;42.098;24.876;2022-07-22T09:45:35;99607.72;;;35.70;29.14
44839;BME280;30576;42.098;24.876;2022-07-22T09:48:25;99616.63;;;35.87;30.38
44839;BME280;30576;42.098;24.876;2022-07-22T09:50:53;99552.75;;;35.93;29.50
44839;BME280;30576;42.098;24.876;2022-07-22T09:53:22;99600.94;;;35.95;27.45
44839;BME280;30576;42.098;24.876;2022-07-22T09:55:48;99595.72;;;36.00;27.41
44839;BME280;30576;42.098;24.876;2022-07-22T09:58:14;99602.78;;;35.65;27.53
44839;BME280;30576;42.098;24.876;2022-07-22T10:00:40;99589.63;;;35.60;28.03
44839;BME280;30576;42.098;24.876;2022-07-22T10:03:08;99555.88;;;35.75;27.25
44839;BME280;30576;42.098;24.876;2022-07-22T10:05:41;99585.94;;;35.68;27.99
44839;BME280;30576;42.098;24.876;2022-07-22T10:08:07;99621.44;;;35.55;28.12
44839;BME280;30576;42.098;24.876;2022-07-22T10:10:35;99574.41;;;35.73;29.86
44839;BME280;30576;42.098;24.876;2022-07-22T10:13:03;99585.16;;;36.49;26.95
44839;BME280;30576;42.098;24.876;2022-07-22T10:15:30;99579.38;;;36.80;27.65
44839;BME280;30576;42.098;24.876;2022-07-22T10:17:59;99566.22;;;36.39;26.90
44839;BME280;30576;42.098;24.876;2022-07-22T10:20:27;99594.44;;;36.84;27.34
44839;BME280;30576;42.098;24.876;2022-07-22T10:22:57;99555.25;;;37.25;25.59
44839;BME280;30576;42.098;24.876;2022-07-22T10:25:26;99577.09;;;37.69;25.72
44839;BME280;30576;42.098;24.876;2022-07-22T10:28:03;99559.16;;;38.14;26.63
44839;BME280;30576;42.098;24.876;2022-07-22T10:30:33;99598.00;;;37.91;25.51
44839;BME280;30576;42.098;24.876;2022-07-22T10:35:59;99582.25;;;37.78;25.40
44839;BME280;30576;42.098;24.876;2022-07-22T10:38:26;99553.88;;;37.43;25.18
44839;BME280;30576;42.098;24.876;2022-07-22T10:40:58;99536.25;;;37.09;25.56
44839;BME280;30576;42.098;24.876;2022-07-22T10:43:27;99602.78;;;37.48;25.33
44839;BME280;30576;42.098;24.876;2022-07-22T10:45:58;99576.03;;;37.35;25.82
44839;BME280;30576;42.098;24.876;2022-07-22T10:51:11;99534.78;;;37.35;24.50
44839;BME280;30576;42.098;24.876;2022-07-22T10:53:55;99588.59;;;37.44;24.60
44839;BME280;30576;42.098;24.876;2022-07-22T10:59:13;99562.91;;;37.65;24.26
44839;BME280;30576;42.098;24.876;2022-07-22T11:01:45;99551.50;;;37.33;24.10
44839;BME280;30576;42.098;24.876;2022-07-22T11:04:22;99553.72;;;37.51;24.47
44839;BME280;30576;42.098;24.876;2022-07-22T11:06:50;99541.50;;;37.04;24.22
44839;BME280;30576;42.098;24.876;2022-07-22T11:09:17;99522.81;;;36.92;24.62
44839;BME280;30576;42.098;24.876;2022-07-22T11:11:51;99577.56;;;37.16;25.34
44839;BME280;30576;42.098;24.876;2022-07-22T11:14:21;99528.69;;;37.11;24.48
44839;BME280;30576;42.098;24.876;2022-07-22T11:17:04;99553.94;;;37.50;24.18
44839;BME280;30576;42.098;24.876;2022-07-22T11:19:34;99532.25;;;37.33;24.71
44839;BME280;30576;42.098;24.876;2022-07-22T11:22:12;99536.97;;;37.46;25.65
44839;BME280;30576;42.098;24.876;2022-07-22T11:24:40;99516.56;;;37.69;23.80
44839;BME280;30576;42.098;24.876;2022-07-22T11:27:13;99511.81;;;37.49;23.69
44839;BME280;30576;42.098;24.876;2022-07-22T11:29:40;99518.44;;;37.61;23.81
44839;BME280;30576;42.098;24.876;2022-07-22T11:32:26;99500.72;;;37.71;23.60
44839;BME280;30576;42.098;24.876;2022-07-22T11:34:53;99527.19;;;37.37;23.85
44839;BME280;30576;42.098;24.876;2022-07-22T11:37:23;99506.88;;;37.09;24.14
44839;BME280;30576;42.098;24.876;2022-07-22T11:39:59;99549.88;;;37.45;23.87
44839;BME280;30576;42.098;24.876;2022-07-22T11:42:25;99516.66;;;37.40;24.28
44839;BME280;30576;42.098;24.876;2022-07-22T11:44:51;99516.03;;;36.88;24.75
44839;BME280;30576;42.098;24.876;2022-07-22T11:47:18;99528.47;;;36.84;23.52
44839;BME280;30576;42.098;24.876;2022-07-22T11:49:45;99486.34;;;36.77;24.41
44839;BME280;30576;42.098;24.876;2022-07-22T11:52:11;99539.16;;;37.22;24.52
44839;BME280;30576;42.098;24.876;2022-07-22T11:54:41;99502.47;;;36.87;24.24
44839;BME280;30576;42.098;24.876;2022-07-22T11:57:07;99497.94;;;37.01;23.83
44839;BME280;30576;42.098;24.876;2022-07-22T11:59:34;99503.56;;;37.21;23.95
44839;BME280;30576;42.098;24.876;2022-07-22T12:02:01;99499.69;;;37.37;22.79
44839;BME280;30576;42.098;24.876;2022-07-22T12:04:28;99521.06;;;37.41;22.54
44839;BME280;30576;42.098;24.876;2022-07-22T12:06:54;99545.84;;;37.76;23.91
44839;BME280;30576;42.098;24.876;2022-07-22T12:09:23;99546.00;;;38.10;21.86
44839;BME280;30576;42.098;24.876;2022-07-22T12:11:52;99522.50;;;38.14;21.46
44839;BME280;30576;42.098;24.876;2022-07-22T12:14:23;99517.53;;;38.38;21.39
44839;BME280;30576;42.098;24.876;2022-07-22T12:16:58;99458.81;;;38.37;21.38
44839;BME280;30576;42.098;24.876;2022-07-22T12:19:26;99492.53;;;38.39;22.58
44839;BME280;30576;42.098;24.876;2022-07-22T12:22:12;99474.09;;;38.40;22.26
44839;BME280;30576;42.098;24.876;2022-07-22T12:24:58;99453.72;;;38.27;22.99
44839;BME280;30576;42.098;24.876;2022-07-22T12:27:26;99476.41;;;38.43;21.94
44839;BME280;30576;42.098;24.876;2022-07-22T12:29:52;99463.50;;;38.37;21.84
44839;BME280;30576;42.098;24.876;2022-07-22T12:34:56;99525.00;;;38.64;20.22
44839;BME280;30576;42.098;24.876;2022-07-22T12:37:26;99517.59;;;39.04;21.02
44839;BME280;30576;42.098;24.876;2022-07-22T12:40:05;99519.88;;;38.61;22.77
44839;BME280;30576;42.098;24.876;2022-07-22T12:42:41;99460.78;;;38.63;21.36
44839;BME280;30576;42.098;24.876;2022-07-22T12:45:09;99433.22;;;38.50;19.75
44839;BME280;30576;42.098;24.876;2022-07-22T12:47:54;99471.38;;;38.80;20.57
44839;BME280;30576;42.098;24.876;2022-07-22T12:50:32;99456.06;;;38.24;20.50
44839;BME280;30576;42.098;24.876;2022-07-22T12:53:08;99474.72;;;38.55;20.38
44839;BME280;30576;42.098;24.876;2022-07-22T12:55:42;99453.56;;;38.76;20.45
44839;BME280;30576;42.098;24.876;2022-07-22T12:58:09;99457.59;;;38.93;20.09
44839;BME280;30576;42.098;24.876;2022-07-22T13:00:40;99468.19;;;38.96;19.17
44839;BME280;30576;42.098;24.876;2022-07-22T13:03:06;99429.19;;;38.59;20.77
44839;BME280;30576;42.098;24.876;2022-07-22T13:05:31;99454.59;;;38.88;20.17
44839;BME280;30576;42.098;24.876;2022-07-22T13:07:57;99473.28;;;39.19;21.17
44839;BME280;30576;42.098;24.876;2022-07-22T13:10:24;99443.25;;;39.50;19.45
44839;BME280;30576;42.098;24.876;2022-07-22T13:12:51;99442.66;;;39.41;19.98
44839;BME280;30576;42.098;24.876;2022-07-22T13:15:17;99469.81;;;39.44;19.82
44839;BME280;30576;42.098;24.876;2022-07-22T13:17:44;99444.63;;;39.07;18.43
44839;BME280;30576;42.098;24.876;2022-07-22T13:20:11;99474.09;;;39.00;18.49
44839;BME280;30576;42.098;24.876;2022-07-22T13:22:38;99449.91;;;39.02;18.92
44839;BME280;30576;42.098;24.876;2022-07-22T13:25:04;99442.75;;;38.81;19.31
44839;BME280;30576;42.098;24.876;2022-07-22T13:27:35;99442.72;;;38.94;19.36
44839;BME280;30576;42.098;24.876;2022-07-22T13:30:04;99430.25;;;38.92;19.66
44839;BME280;30576;42.098;24.876;2022-07-22T13:32:33;99441.50;;;38.70;18.67
44839;BME280;30576;42.098;24.876;2022-07-22T13:34:59;99463.84;;;39.40;20.42
44839;BME280;30576;42.098;24.876;2022-07-22T13:37:25;99462.25;;;38.59;21.07
44839;BME280;30576;42.098;24.876;2022-07-22T13:39:51;99473.91;;;39.21;19.55
44839;BME280;30576;42.098;24.876;2022-07-22T13:42:17;99430.53;;;39.42;18.17
44839;BME280;30576;42.098;24.876;2022-07-22T13:44:47;99426.06;;;39.61;18.46
44839;BME280;30576;42.098;24.876;2022-07-22T13:47:13;99442.22;;;39.44;19.06
44839;BME280;30576;42.098;24.876;2022-07-22T13:49:39;99436.97;;;39.29;19.32
44839;BME280;30576;42.098;24.876;2022-07-22T13:52:05;99473.88;;;39.28;19.09
44839;BME280;30576;42.098;24.876;2022-07-22T13:54:33;99456.09;;;39.11;19.55
44839;BME280;30576;42.098;24.876;2022-07-22T13:57:00;99453.09;;;39.26;18.75
44839;BME280;30576;42.098;24.876;2022-07-22T13:59:27;99450.81;;;39.09;19.77
44839;BME280;30576;42.098;24.876;2022-07-22T14:01:53;99404.69;;;39.30;18.63
44839;BME280;30576;42.098;24.876;2022-07-22T14:04:19;99427.56;;;39.44;21.46